createdAt,value
2023-04-26T00:00:35.543Z,6.90
2023-04-26T00:03:03.933Z,7.00
2023-04-26T00:05:33.063Z,6.80
2023-04-26T00:08:00.376Z,6.70
2023-04-26T00:10:27.341Z,6.80
2023-04-26T00:12:54.222Z,6.80
2023-04-26T00:15:21.026Z,6.90
2023-04-26T00:17:47.941Z,7.10
2023-04-26T00:20:14.746Z,7.20
2023-04-26T00:22:41.486Z,7.20
2023-04-26T00:25:08.809Z,7.30
2023-04-26T00:27:35.782Z,7.30
2023-04-26T00:30:02.477Z,7.30
2023-04-26T00:32:31.190Z,7.40
2023-04-26T00:34:57.920Z,7.40
2023-04-26T00:37:24.978Z,7.20
2023-04-26T00:39:51.842Z,7.00
2023-04-26T00:42:19.467Z,6.70
2023-04-26T00:44:46.378Z,6.70
2023-04-26T00:47:15.725Z,6.70
2023-04-26T00:49:42.566Z,6.80
2023-04-26T00:52:09.735Z,6.80
2023-04-26T00:54:36.721Z,6.60
2023-04-26T00:57:03.583Z,6.60
2023-04-26T00:59:30.641Z,6.60
2023-04-26T01:01:57.704Z,6.70
2023-04-26T01:04:27.345Z,6.80
2023-04-26T01:06:57.864Z,6.70
2023-04-26T01:09:24.647Z,6.60
2023-04-26T01:11:52.846Z,6.50
2023-04-26T01:14:19.962Z,6.40
2023-04-26T01:16:46.995Z,6.30
2023-04-26T01:19:13.960Z,6.10
2023-04-26T01:21:41.609Z,6.10
2023-04-26T01:24:13.048Z,6.10
2023-04-26T01:26:45.678Z,6.10
2023-04-26T01:29:24.678Z,6.10
2023-04-26T01:31:51.442Z,6.10
2023-04-26T01:34:18.328Z,6.20
2023-04-26T01:36:45.078Z,6.10
2023-04-26T01:39:11.974Z,6.20
2023-04-26T01:41:38.783Z,6.20
2023-04-26T01:44:05.724Z,6.20
2023-04-26T01:46:35.810Z,6.20
2023-04-26T01:49:02.944Z,6.20
2023-04-26T01:51:29.799Z,6.20
2023-04-26T01:53:56.542Z,6.10
2023-04-26T01:56:24.887Z,6.20
2023-04-26T01:58:51.836Z,6.20
2023-04-26T02:01:31.559Z,6.20
2023-04-26T02:03:58.437Z,6.30
2023-04-26T02:06:25.370Z,6.30
2023-04-26T02:08:53.246Z,6.20
2023-04-26T02:11:20.272Z,6.20
2023-04-26T02:13:47.184Z,6.20
2023-04-26T02:16:16.222Z,6.20
2023-04-26T02:18:44.398Z,6.10
2023-04-26T02:21:12.324Z,6.10
2023-04-26T02:23:39.071Z,6.10
2023-04-26T02:26:06.114Z,6.20
2023-04-26T02:28:32.979Z,6.10
2023-04-26T02:30:59.771Z,6.20
2023-04-26T02:33:26.638Z,6.20
2023-04-26T02:35:53.376Z,6.30
2023-04-26T02:38:20.295Z,6.30
2023-04-26T02:40:47.367Z,6.30
2023-04-26T02:43:14.135Z,6.40
2023-04-26T02:45:42.653Z,6.30
2023-04-26T02:48:09.524Z,6.30
2023-04-26T02:50:36.401Z,6.30
2023-04-26T02:53:03.739Z,6.30
2023-04-26T02:55:33.648Z,6.30
2023-04-26T02:58:00.396Z,6.40
2023-04-26T03:00:27.920Z,6.50
2023-04-26T03:02:54.889Z,6.40
2023-04-26T03:05:22.716Z,6.50
2023-04-26T03:07:49.467Z,6.60
2023-04-26T03:10:16.355Z,6.50
2023-04-26T03:12:43.300Z,6.50
2023-04-26T03:15:10.691Z,6.50
2023-04-26T03:17:38.199Z,6.40
2023-04-26T03:20:08.091Z,6.40
2023-04-26T03:22:34.897Z,6.30
2023-04-26T03:25:01.702Z,6.40
2023-04-26T03:27:28.438Z,6.50
2023-04-26T03:29:55.855Z,6.40
2023-04-26T03:32:22.590Z,6.30
2023-04-26T03:34:49.913Z,6.40
2023-04-26T03:37:16.649Z,6.30
2023-04-26T03:39:43.461Z,6.40
2023-04-26T03:42:10.323Z,6.30
2023-04-26T03:44:37.158Z,6.30
2023-04-26T03:47:05.262Z,6.30
2023-04-26T03:49:32.237Z,6.40
2023-04-26T03:51:59.156Z,6.40
2023-04-26T03:54:25.930Z,6.40
2023-04-26T03:56:52.675Z,6.40
2023-04-26T03:59:20.320Z,6.40
2023-04-26T04:01:47.081Z,6.40
2023-04-26T04:04:14.148Z,6.30
2023-04-26T04:06:42.276Z,6.40
2023-04-26T04:09:09.178Z,6.40
2023-04-26T04:11:36.019Z,6.30
2023-04-26T04:14:03.020Z,6.30
2023-04-26T04:16:29.976Z,6.40
2023-04-26T04:18:57.128Z,6.30
2023-04-26T04:21:23.921Z,6.40
2023-04-26T04:23:50.757Z,6.30
2023-04-26T04:26:17.570Z,6.20
2023-04-26T04:28:45.625Z,6.30
2023-04-26T04:31:13.170Z,6.10
2023-04-26T04:33:40.468Z,6.00
2023-04-26T04:36:08.372Z,6.30
2023-04-26T04:38:35.944Z,6.40
2023-04-26T04:41:02.805Z,6.60
2023-04-26T04:43:29.512Z,6.50
2023-04-26T04:45:56.191Z,6.20
2023-04-26T04:48:23.066Z,6.30
2023-04-26T04:50:50.740Z,6.20
2023-04-26T04:53:17.673Z,6.00
2023-04-26T04:55:44.451Z,6.00
2023-04-26T04:58:11.265Z,6.00
2023-04-26T05:00:38.983Z,6.10
2023-04-26T05:03:05.863Z,6.20
2023-04-26T05:05:32.716Z,6.20
2023-04-26T05:07:59.537Z,6.00
2023-04-26T05:10:26.319Z,5.70
2023-04-26T05:12:53.016Z,5.80
2023-04-26T05:15:19.859Z,5.80
2023-04-26T05:17:46.561Z,5.60
2023-04-26T05:20:14.812Z,5.50
2023-04-26T05:22:41.539Z,5.60
2023-04-26T05:25:09.160Z,5.40
2023-04-26T05:27:37.485Z,5.30
2023-04-26T05:30:06.096Z,5.40
2023-04-26T05:32:32.858Z,5.20
2023-04-26T05:34:59.589Z,5.20
2023-04-26T05:37:26.335Z,5.30
2023-04-26T05:39:53.019Z,5.00
2023-04-26T05:42:19.868Z,5.20
2023-04-26T05:44:46.721Z,5.20
2023-04-26T05:47:14.018Z,5.20
2023-04-26T05:49:40.849Z,5.00
2023-04-26T05:52:07.736Z,4.90
2023-04-26T05:54:34.665Z,4.90
2023-04-26T05:57:02.103Z,5.20
2023-04-26T05:59:32.969Z,5.20
2023-04-26T06:01:59.976Z,5.60
2023-04-26T06:04:27.441Z,5.50
2023-04-26T06:06:54.648Z,5.10
2023-04-26T06:09:21.511Z,5.50
2023-04-26T06:11:48.388Z,5.60
2023-04-26T06:14:29.612Z,5.70
2023-04-26T06:16:58.215Z,5.50
2023-04-26T06:19:25.494Z,5.50
2023-04-26T06:21:54.955Z,5.30
2023-04-26T06:24:25.402Z,5.20
2023-04-26T06:26:52.570Z,5.20
2023-04-26T06:29:20.760Z,4.90
2023-04-26T06:31:47.525Z,5.40
2023-04-26T06:34:14.540Z,5.80
2023-04-26T06:36:41.803Z,5.50
2023-04-26T06:39:08.557Z,5.50
2023-04-26T06:41:35.443Z,5.40
2023-04-26T06:44:02.477Z,6.00
2023-04-26T06:46:35.559Z,6.30
2023-04-26T06:49:05.224Z,5.50
2023-04-26T06:51:32.448Z,5.50
2023-04-26T06:54:00.909Z,5.50
2023-04-26T06:56:27.990Z,5.80
2023-04-26T06:59:08.727Z,5.90
2023-04-26T07:01:36.349Z,5.80
2023-04-26T07:04:06.088Z,6.00
2023-04-26T07:06:33.251Z,6.20
2023-04-26T07:09:01.662Z,5.90
2023-04-26T07:11:28.866Z,5.90
2023-04-26T07:13:55.882Z,5.90
2023-04-26T07:16:23.247Z,5.90
2023-04-26T07:18:50.562Z,5.80
2023-04-26T07:21:17.504Z,6.30
2023-04-26T07:23:44.489Z,6.50
2023-04-26T07:26:12.269Z,6.20
2023-04-26T07:28:39.390Z,6.50
2023-04-26T07:31:08.789Z,6.30
2023-04-26T07:33:36.912Z,6.10
2023-04-26T07:36:08.652Z,6.20
2023-04-26T07:38:46.921Z,6.40
2023-04-26T07:41:25.222Z,6.40
2023-04-26T07:44:02.636Z,6.40
2023-04-26T07:46:35.570Z,6.60
2023-04-26T07:49:08.109Z,6.60
2023-04-26T07:51:37.435Z,7.00
2023-04-26T07:54:07.427Z,7.00
2023-04-26T07:56:34.551Z,7.00
2023-04-26T07:59:11.947Z,6.90
2023-04-26T08:01:42.565Z,7.10
2023-04-26T08:04:12.908Z,7.40
2023-04-26T08:06:44.980Z,7.50
2023-04-26T08:09:16.431Z,7.70
2023-04-26T08:11:47.895Z,7.60
2023-04-26T08:14:14.684Z,7.80
2023-04-26T08:16:41.661Z,7.80
2023-04-26T08:19:28.842Z,7.90
2023-04-26T08:21:55.842Z,7.80
2023-04-26T08:24:22.764Z,7.90
2023-04-26T08:26:49.798Z,8.00
2023-04-26T08:29:22.915Z,7.70
2023-04-26T08:31:49.874Z,7.90
2023-04-26T08:34:16.800Z,8.10
2023-04-26T08:36:44.148Z,8.00
2023-04-26T08:39:12.469Z,8.00
2023-04-26T08:41:51.054Z,8.30
2023-04-26T08:44:23.783Z,8.20
2023-04-26T08:47:20.297Z,8.50
2023-04-26T08:49:53.160Z,8.60
2023-04-26T08:52:23.656Z,8.80
2023-04-26T08:54:52.109Z,8.60
2023-04-26T08:57:20.255Z,8.90
2023-04-26T08:59:47.817Z,9.10
2023-04-26T09:02:18.758Z,9.30
2023-04-26T09:04:49.629Z,9.30
2023-04-26T09:07:27.236Z,9.40
2023-04-26T09:09:57.784Z,9.50
2023-04-26T09:12:25.451Z,9.50
2023-04-26T09:14:53.189Z,9.70
2023-04-26T09:17:34.337Z,9.90
2023-04-26T09:20:01.798Z,10.00
2023-04-26T09:22:33.899Z,10.10
2023-04-26T09:25:02.054Z,9.90
2023-04-26T09:27:33.926Z,10.00
2023-04-26T09:30:07.765Z,10.40
2023-04-26T09:32:49.645Z,10.40
2023-04-26T09:35:32.764Z,10.60
2023-04-26T09:38:07.793Z,10.80
2023-04-26T09:40:41.384Z,10.80
2023-04-26T09:43:13.136Z,10.90
2023-04-26T09:45:51.892Z,11.00
2023-04-26T09:48:30.734Z,11.10
2023-04-26T09:51:03.881Z,11.20
2023-04-26T09:53:47.316Z,11.40
2023-04-26T09:56:19.925Z,11.50
2023-04-26T09:58:46.612Z,11.60
2023-04-26T10:01:18.218Z,11.60
2023-04-26T10:03:46.592Z,11.60
2023-04-26T10:06:13.846Z,11.60
2023-04-26T10:08:40.858Z,12.00
2023-04-26T10:11:08.468Z,12.50
2023-04-26T10:13:35.723Z,12.70
2023-04-26T10:16:04.637Z,12.70
2023-04-26T10:18:32.593Z,12.90
2023-04-26T10:21:20.020Z,12.60
2023-04-26T10:23:48.858Z,12.60
2023-04-26T10:26:47.245Z,12.20
2023-04-26T10:29:14.090Z,12.90
2023-04-26T10:32:02.901Z,12.90
2023-04-26T10:34:34.000Z,13.00
2023-04-26T10:37:18.198Z,13.00
2023-04-26T10:39:46.830Z,12.90
2023-04-26T10:42:28.142Z,12.90
2023-04-26T10:45:26.345Z,12.70
2023-04-26T10:48:20.434Z,13.00
2023-04-26T10:51:01.233Z,13.10
2023-04-26T10:53:29.583Z,13.00
2023-04-26T10:55:56.718Z,13.10
2023-04-26T10:58:30.785Z,13.20
2023-04-26T11:01:07.330Z,12.50
2023-04-26T11:03:34.581Z,12.40
2023-04-26T11:06:07.473Z,12.30
2023-04-26T11:08:36.460Z,12.20
2023-04-26T11:11:10.254Z,12.60
2023-04-26T11:13:44.212Z,12.40
2023-04-26T11:16:16.516Z,12.00
2023-04-26T11:18:45.161Z,12.10
2023-04-26T11:21:15.398Z,12.50
2023-04-26T11:23:42.072Z,12.70
2023-04-26T11:26:17.695Z,12.60
2023-04-26T11:32:00.034Z,12.60
2023-04-26T11:34:44.004Z,12.60
2023-04-26T11:37:11.658Z,12.60
2023-04-26T11:39:51.512Z,12.20
2023-04-26T11:42:26.272Z,12.00
2023-04-26T11:44:54.230Z,12.40
2023-04-26T11:47:38.396Z,12.90
2023-04-26T11:50:06.533Z,12.90
2023-04-26T11:53:03.073Z,13.00
2023-04-26T11:55:37.485Z,12.40
2023-04-26T11:58:14.273Z,12.90
2023-04-26T12:00:58.095Z,12.60
2023-04-26T12:03:35.379Z,12.80
2023-04-26T12:06:02.513Z,12.70
2023-04-26T12:08:29.385Z,12.60
2023-04-26T12:11:01.156Z,12.50
2023-04-26T12:13:29.849Z,12.80
2023-04-26T12:15:56.647Z,13.00
2023-04-26T12:18:30.649Z,12.70
2023-04-26T12:21:01.385Z,12.40
2023-04-26T12:23:39.515Z,12.40
2023-04-26T12:26:07.621Z,12.80
2023-04-26T12:28:34.502Z,13.40
2023-04-26T12:31:03.673Z,13.60
2023-04-26T12:33:31.191Z,13.80
2023-04-26T12:36:00.238Z,14.00
2023-04-26T12:38:27.012Z,14.10
2023-04-26T12:40:53.759Z,14.50
2023-04-26T12:43:24.172Z,15.00
2023-04-26T12:45:51.349Z,14.80
2023-04-26T12:48:18.535Z,14.20
2023-04-26T12:50:49.207Z,13.80
2023-04-26T12:53:17.092Z,14.50
2023-04-26T12:55:44.467Z,14.70
2023-04-26T12:58:11.642Z,14.70
2023-04-26T13:00:38.649Z,14.40
2023-04-26T13:03:05.713Z,14.00
2023-04-26T13:05:32.557Z,14.50
2023-04-26T13:08:05.554Z,14.80
2023-04-26T13:10:33.020Z,14.90
2023-04-26T13:12:59.892Z,14.70
2023-04-26T13:15:27.690Z,14.40
2023-04-26T13:17:54.552Z,14.70
2023-04-26T13:20:22.345Z,15.00
2023-04-26T13:22:51.475Z,13.80
2023-04-26T13:25:19.237Z,13.60
2023-04-26T13:27:46.513Z,14.40
2023-04-26T13:30:14.151Z,14.50
2023-04-26T13:32:41.277Z,14.70
2023-04-26T13:35:08.777Z,13.90
2023-04-26T13:37:35.872Z,14.10
2023-04-26T13:40:06.345Z,14.20
2023-04-26T13:42:33.205Z,14.50
2023-04-26T13:45:01.320Z,13.90
2023-04-26T13:47:28.236Z,13.70
2023-04-26T13:49:55.022Z,13.70
2023-04-26T13:52:21.762Z,14.10
2023-04-26T13:54:48.656Z,14.00
2023-04-26T13:57:16.041Z,14.00
2023-04-26T13:59:42.886Z,14.00
2023-04-26T14:02:10.731Z,14.50
2023-04-26T14:04:38.125Z,14.30
2023-04-26T14:07:05.690Z,13.80
2023-04-26T14:09:32.767Z,14.10
2023-04-26T14:12:08.091Z,14.50
2023-04-26T14:14:35.965Z,14.90
2023-04-26T14:17:02.879Z,14.30
2023-04-26T14:19:29.663Z,14.50
2023-04-26T14:21:56.399Z,13.70
2023-04-26T14:24:23.238Z,14.30
2023-04-26T14:26:50.086Z,14.10
2023-04-26T14:29:17.046Z,13.70
2023-04-26T14:31:44.171Z,13.50
2023-04-26T14:34:13.823Z,13.90
2023-04-26T14:36:40.696Z,13.60
2023-04-26T14:39:07.899Z,13.50
2023-04-26T14:41:34.885Z,13.50
2023-04-26T14:44:01.817Z,13.80
2023-04-26T14:46:28.789Z,14.10
2023-04-26T14:48:55.754Z,14.60
2023-04-26T14:51:22.491Z,14.70
2023-04-26T14:53:49.426Z,14.60
2023-04-26T14:56:18.720Z,14.20
2023-04-26T14:58:48.155Z,13.70
2023-04-26T15:01:15.075Z,13.70
2023-04-26T15:03:42.021Z,13.80
2023-04-26T15:06:12.039Z,14.40
2023-04-26T15:08:38.853Z,14.50
2023-04-26T15:11:05.696Z,14.60
2023-04-26T15:13:32.449Z,14.50
2023-04-26T15:16:07.876Z,14.40
2023-04-26T15:18:34.891Z,14.70
2023-04-26T15:21:01.865Z,14.60
2023-04-26T15:23:28.722Z,14.60
2023-04-26T15:25:55.565Z,14.90
2023-04-26T15:28:34.393Z,14.90
2023-04-26T15:31:02.856Z,15.10
2023-04-26T15:33:30.572Z,15.40
2023-04-26T15:35:57.492Z,15.80
2023-04-26T15:38:24.540Z,16.00
2023-04-26T15:40:51.385Z,16.10
2023-04-26T15:43:18.334Z,15.80
2023-04-26T15:45:45.601Z,15.50
2023-04-26T15:48:12.668Z,15.00
2023-04-26T15:50:39.431Z,15.50
2023-04-26T15:53:06.230Z,15.50
2023-04-26T15:55:33.267Z,15.90
2023-04-26T15:58:20.447Z,15.40
2023-04-26T16:00:47.180Z,15.10
2023-04-26T16:03:14.075Z,15.20
2023-04-26T16:05:40.993Z,14.90
2023-04-26T16:08:07.886Z,15.30
2023-04-26T16:10:36.331Z,15.30
2023-04-26T16:13:04.997Z,16.00
2023-04-26T16:15:31.879Z,15.50
2023-04-26T16:17:58.879Z,16.00
2023-04-26T16:20:26.136Z,16.10
2023-04-26T16:22:53.077Z,15.70
2023-04-26T16:25:20.057Z,15.50
2023-04-26T16:27:47.123Z,15.60
2023-04-26T16:30:32.362Z,15.50
2023-04-26T16:33:22.064Z,15.60
2023-04-26T16:36:01.356Z,14.90
2023-04-26T16:38:28.236Z,15.20
2023-04-26T16:41:12.659Z,15.10
2023-04-26T16:43:41.376Z,15.00
2023-04-26T16:46:13.764Z,14.40
2023-04-26T16:48:44.142Z,14.00
2023-04-26T16:51:11.396Z,13.90
2023-04-26T16:53:41.467Z,14.20
2023-04-26T16:56:14.122Z,14.40
2023-04-26T16:58:58.062Z,14.40
2023-04-26T17:01:27.981Z,14.20
2023-04-26T17:03:58.477Z,13.70
2023-04-26T17:06:25.514Z,13.70
2023-04-26T17:08:52.521Z,13.80
2023-04-26T17:11:28.445Z,14.00
2023-04-26T17:14:05.888Z,14.40
2023-04-26T17:16:54.698Z,14.50
2023-04-26T17:19:24.657Z,14.50
2023-04-26T17:21:51.568Z,14.20
2023-04-26T17:24:18.274Z,14.30
2023-04-26T17:26:45.423Z,14.10
2023-04-26T17:29:12.207Z,14.00
2023-04-26T17:32:37.444Z,13.90
2023-04-26T17:35:04.553Z,14.00
2023-04-26T17:37:31.462Z,13.80
2023-04-26T17:40:24.532Z,13.70
2023-04-26T17:42:51.533Z,13.50
2023-04-26T17:45:33.561Z,13.50
2023-04-26T17:54:34.662Z,13.50
2023-04-26T18:00:17.868Z,13.40
2023-04-26T18:03:07.145Z,13.30
2023-04-26T18:11:27.390Z,13.30
2023-04-26T18:14:28.881Z,13.20
2023-04-26T18:16:59.192Z,13.20
2023-04-26T18:19:26.051Z,13.30
2023-04-26T18:25:18.389Z,13.20
2023-04-26T18:30:55.620Z,13.10
2023-04-26T18:33:57.873Z,13.00
2023-04-26T18:36:40.588Z,13.00
2023-04-26T18:44:53.511Z,12.80
2023-04-26T18:47:29.217Z,12.80
2023-04-26T18:49:56.104Z,12.70
2023-04-26T18:52:27.852Z,12.70
2023-04-26T18:57:41.914Z,12.60
2023-04-26T19:00:09.320Z,12.50
2023-04-26T19:08:38.994Z,12.50
2023-04-26T19:11:13.947Z,12.50
2023-04-26T19:13:41.572Z,12.40
2023-04-26T19:16:17.573Z,12.40
2023-04-26T19:19:19.917Z,12.40
2023-04-26T19:25:13.311Z,12.40
2023-04-26T19:28:32.549Z,12.30
2023-04-26T19:31:02.373Z,12.20
2023-04-26T19:33:32.687Z,12.10
2023-04-26T19:36:08.407Z,12.10
2023-04-26T19:44:37.132Z,11.90
2023-04-26T19:50:00.222Z,11.80
2023-04-26T19:52:35.778Z,11.80
2023-04-26T19:55:05.676Z,11.80
2023-04-26T20:08:04.760Z,11.50
2023-04-26T20:10:55.132Z,11.50
2023-04-26T20:13:49.467Z,11.50
2023-04-26T20:16:56.436Z,11.40
2023-04-26T20:25:39.264Z,11.40
2023-04-26T20:28:30.428Z,11.20
2023-04-26T20:31:12.485Z,11.10
2023-04-26T20:36:37.920Z,11.00
2023-04-26T20:42:03.660Z,10.90
2023-04-26T20:44:35.345Z,10.90
2023-04-26T20:47:02.438Z,10.90
2023-04-26T20:49:35.104Z,10.90
2023-04-26T20:52:09.471Z,10.90
2023-04-26T20:54:36.297Z,10.80
2023-04-26T20:57:03.779Z,10.80
2023-04-26T20:59:37.737Z,10.70
2023-04-26T21:05:00.319Z,10.80
2023-04-26T21:07:40.554Z,10.80
2023-04-26T21:10:16.840Z,10.90
2023-04-26T21:12:46.028Z,10.80
2023-04-26T21:15:22.504Z,10.70
2023-04-26T21:17:51.353Z,10.70
2023-04-26T21:26:10.484Z,10.60
2023-04-26T21:28:39.171Z,10.60
2023-04-26T21:31:10.954Z,10.60
2023-04-26T21:33:40.043Z,10.60
2023-04-26T21:36:21.535Z,10.60
2023-04-26T21:39:03.907Z,10.60
2023-04-26T21:41:34.852Z,10.60
2023-04-26T21:44:36.672Z,10.50
2023-04-26T21:47:13.250Z,10.50
2023-04-26T21:49:43.632Z,10.60
2023-04-26T21:52:10.807Z,10.50
2023-04-26T21:54:54.737Z,10.50
2023-04-26T21:57:26.867Z,10.50
2023-04-26T22:00:00.794Z,10.60
2023-04-26T22:02:30.645Z,10.50
2023-04-26T22:04:57.489Z,10.40
2023-04-26T22:07:27.836Z,10.30
2023-04-26T22:10:04.504Z,10.30
2023-04-26T22:12:53.322Z,10.30
2023-04-26T22:16:27.339Z,10.30
2023-04-26T22:19:00.543Z,10.30
2023-04-26T22:21:29.075Z,10.20
2023-04-26T22:23:56.828Z,10.30
2023-04-26T22:26:28.975Z,10.40
2023-04-26T22:28:57.894Z,10.40
2023-04-26T22:34:49.594Z,10.20
2023-04-26T22:40:53.166Z,10.20
2023-04-26T22:43:28.727Z,10.40
2023-04-26T22:46:12.625Z,10.60
2023-04-26T22:48:40.479Z,10.40
2023-04-26T22:51:13.092Z,10.50
2023-04-26T22:53:41.479Z,10.40
2023-04-26T22:56:12.868Z,10.30
2023-04-26T22:58:49.433Z,10.20
2023-04-26T23:01:16.677Z,10.00
2023-04-26T23:03:49.865Z,10.00
2023-04-26T23:06:17.048Z,10.00
2023-04-26T23:08:43.895Z,9.90
2023-04-26T23:11:11.138Z,9.70
2023-04-26T23:13:37.936Z,9.40
2023-04-26T23:16:06.239Z,9.20
2023-04-26T23:18:34.224Z,9.20
2023-04-26T23:21:01.375Z,9.50
2023-04-26T23:23:30.573Z,9.50
2023-04-26T23:26:01.313Z,9.40
2023-04-26T23:28:29.917Z,9.40
2023-04-26T23:30:59.126Z,9.70
2023-04-26T23:33:29.631Z,9.90
2023-04-26T23:36:02.244Z,9.90
2023-04-26T23:38:32.132Z,9.60
2023-04-26T23:41:02.563Z,9.50
2023-04-26T23:43:30.970Z,9.50
2023-04-26T23:46:03.440Z,9.50
2023-04-26T23:48:49.290Z,9.60
2023-04-26T23:51:19.693Z,9.80
2023-04-26T23:56:55.423Z,9.90
2023-04-26T23:59:27.916Z,9.80
